Terminal Aerodrome Forecast
Issued by NWS Albany, NY

Home | Current Version | Previous Version | Text Only | Print | Product List | Glossary On
Versions: 1 2 3 4 5 6 7 8 9 10 11 12 13 14 15 16 17 18 19 20
752
FTUS41 KALY 260959 AAA
TAFALB
TAF AMD
KALB 260959Z 2610/2706 00000KT 1SM BR VV002
      TEMPO 2610/2612 3SM BR SCT002 SCT250
     FM261200 15004KT P6SM SCT250
     FM261500 16007KT P6SM BKN250
     FM261900 17010G18KT P6SM SCT120 BKN250
     FM270000 17008KT P6SM SCT050 BKN120
     FM270400 16008KT 5SM -SHRA BR SCT025 OVC050=

USA.gov is the U.S. government's official web portal to all federal, state and local government web resources and services.